sensor_id;sensor_type;location;lat;lon;timestamp;pressure;altitude;pressure_sealevel;temperature;humidity
69784;BME280;57054;51.978;4.498;2023-01-30T00:01:32;101817.34;;;6.62;100.00
69784;BME280;57054;51.978;4.498;2023-01-30T00:03:57;101837.28;;;6.63;100.00
69784;BME280;57054;51.978;4.498;2023-01-30T00:06:23;101828.59;;;6.64;100.00
69784;BME280;57054;51.978;4.498;2023-01-30T00:08:48;101819.06;;;6.65;100.00
69784;BME280;57054;51.978;4.498;2023-01-30T00:11:14;101815.59;;;6.66;100.00
69784;BME280;57054;51.978;4.498;2023-01-30T00:13:40;101806.88;;;6.67;100.00
69784;BME280;57054;51.978;4.498;2023-01-30T00:16:05;101806.00;;;6.69;100.00
69784;BME280;57054;51.978;4.498;2023-01-30T00:18:31;101810.34;;;6.69;100.00
69784;BME280;57054;51.978;4.498;2023-01-30T00:20:57;101806.00;;;6.69;100.00
69784;BME280;57054;51.978;4.498;2023-01-30T00:23:23;101813.81;;;6.69;100.00
69784;BME280;57054;51.978;4.498;2023-01-30T00:25:48;101811.22;;;6.69;100.00
69784;BME280;57054;51.978;4.498;2023-01-30T00:28:14;101804.25;;;6.70;100.00
69784;BME280;57054;51.978;4.498;2023-01-30T00:30:39;101792.94;;;6.71;100.00
69784;BME280;57054;51.978;4.498;2023-01-30T00:33:04;101774.72;;;6.71;100.00
69784;BME280;57054;51.978;4.498;2023-01-30T00:35:29;101766.06;;;6.70;100.00
69784;BME280;57054;51.978;4.498;2023-01-30T00:37:55;101775.63;;;6.71;100.00
69784;BME280;57054;51.978;4.498;2023-01-30T00:40:22;101780.81;;;6.71;100.00
69784;BME280;57054;51.978;4.498;2023-01-30T00:42:47;101780.81;;;6.71;100.00
69784;BME280;57054;51.978;4.498;2023-01-30T00:45:31;101774.72;;;6.72;100.00
69784;BME280;57054;51.978;4.498;2023-01-30T00:48:15;101767.81;;;6.71;100.00
69784;BME280;57054;51.978;4.498;2023-01-30T00:50:40;101766.91;;;6.71;100.00
69784;BME280;57054;51.978;4.498;2023-01-30T00:53:09;101768.66;;;6.72;100.00
69784;BME280;57054;51.978;4.498;2023-01-30T00:55:34;101764.31;;;6.72;100.00
69784;BME280;57054;51.978;4.498;2023-01-30T00:57:59;101752.19;;;6.71;100.00
69784;BME280;57054;51.978;4.498;2023-01-30T01:00:25;101754.78;;;6.71;100.00
69784;BME280;57054;51.978;4.498;2023-01-30T01:02:50;101758.25;;;6.70;100.00
69784;BME280;57054;51.978;4.498;2023-01-30T01:05:15;101740.88;;;6.71;100.00
69784;BME280;57054;51.978;4.498;2023-01-30T01:07:41;101717.47;;;6.71;100.00
69784;BME280;57054;51.978;4.498;2023-01-30T01:10:06;101703.59;;;6.70;100.00
69784;BME280;57054;51.978;4.498;2023-01-30T01:12:31;101700.97;;;6.70;100.00
69784;BME280;57054;51.978;4.498;2023-01-30T01:14:57;101697.53;;;6.70;100.00
69784;BME280;57054;51.978;4.498;2023-01-30T01:17:22;101687.97;;;6.70;100.00
69784;BME280;57054;51.978;4.498;2023-01-30T01:19:47;101675.84;;;6.69;100.00
69784;BME280;57054;51.978;4.498;2023-01-30T01:22:13;101684.53;;;6.68;100.00
69784;BME280;57054;51.978;4.498;2023-01-30T01:24:38;101682.78;;;6.67;100.00
69784;BME280;57054;51.978;4.498;2023-01-30T01:27:03;101701.91;;;6.68;100.00
69784;BME280;57054;51.978;4.498;2023-01-30T01:29:29;101700.16;;;6.68;100.00
69784;BME280;57054;51.978;4.498;2023-01-30T01:31:54;101696.69;;;6.69;100.00
69784;BME280;57054;51.978;4.498;2023-01-30T01:34:21;101706.22;;;6.69;100.00
69784;BME280;57054;51.978;4.498;2023-01-30T01:36:47;101694.94;;;6.68;100.00
69784;BME280;57054;51.978;4.498;2023-01-30T01:39:13;101689.75;;;6.67;100.00
69784;BME280;57054;51.978;4.498;2023-01-30T01:41:38;101712.31;;;6.66;100.00
69784;BME280;57054;51.978;4.498;2023-01-30T01:44:04;101703.66;;;6.66;100.00
69784;BME280;57054;51.978;4.498;2023-01-30T01:48:59;101703.66;;;6.66;100.00
69784;BME280;57054;51.978;4.498;2023-01-30T01:51:31;101714.06;;;6.64;100.00
69784;BME280;57054;51.978;4.498;2023-01-30T01:54:01;101709.75;;;6.63;100.00
69784;BME280;57054;51.978;4.498;2023-01-30T01:56:28;101701.06;;;6.64;100.00
69784;BME280;57054;51.978;4.498;2023-01-30T01:58:54;101705.38;;;6.64;100.00
69784;BME280;57054;51.978;4.498;2023-01-30T02:01:22;101697.56;;;6.64;100.00
69784;BME280;57054;51.978;4.498;2023-01-30T02:03:48;101707.13;;;6.63;100.00
69784;BME280;57054;51.978;4.498;2023-01-30T02:06:16;101701.06;;;6.63;100.00
69784;BME280;57054;51.978;4.498;2023-01-30T02:08:46;101706.28;;;6.61;100.00
69784;BME280;57054;51.978;4.498;2023-01-30T02:11:23;101706.28;;;6.61;100.00
69784;BME280;57054;51.978;4.498;2023-01-30T02:13:49;101690.69;;;6.60;100.00
69784;BME280;57054;51.978;4.498;2023-01-30T02:16:15;101686.38;;;6.59;100.00
69784;BME280;57054;51.978;4.498;2023-01-30T02:18:41;101694.19;;;6.59;100.00
69784;BME280;57054;51.978;4.498;2023-01-30T02:29:08;101671.63;;;6.59;100.00
69784;BME280;57054;51.978;4.498;2023-01-30T02:31:42;101668.16;;;6.59;100.00
69784;BME280;57054;51.978;4.498;2023-01-30T02:39:36;101678.50;;;6.63;100.00
69784;BME280;57054;51.978;4.498;2023-01-30T02:47:13;101688.88;;;6.66;100.00
69784;BME280;57054;51.978;4.498;2023-01-30T02:49:47;101674.13;;;6.67;100.00
69784;BME280;57054;51.978;4.498;2023-01-30T02:52:16;101666.28;;;6.70;100.00
69784;BME280;57054;51.978;4.498;2023-01-30T02:54:41;101666.28;;;6.70;100.00
69784;BME280;57054;51.978;4.498;2023-01-30T02:57:23;101664.53;;;6.72;100.00
69784;BME280;57054;51.978;4.498;2023-01-30T02:59:53;101659.31;;;6.72;100.00
69784;BME280;57054;51.978;4.498;2023-01-30T03:12:51;101666.19;;;6.78;100.00
69784;BME280;57054;51.978;4.498;2023-01-30T03:15:23;101661.00;;;6.78;100.00
69784;BME280;57054;51.978;4.498;2023-01-30T03:17:49;101664.44;;;6.78;100.00
69784;BME280;57054;51.978;4.498;2023-01-30T03:20:15;101666.16;;;6.81;100.00
69784;BME280;57054;51.978;4.498;2023-01-30T03:22:42;101677.44;;;6.80;100.00
69784;BME280;57054;51.978;4.498;2023-01-30T03:25:08;101660.97;;;6.81;100.00
69784;BME280;57054;51.978;4.498;2023-01-30T03:27:35;101675.69;;;6.82;100.00
69784;BME280;57054;51.978;4.498;2023-01-30T03:30:01;101663.56;;;6.82;100.00
69784;BME280;57054;51.978;4.498;2023-01-30T03:32:27;101653.09;;;6.84;100.00
69784;BME280;57054;51.978;4.498;2023-01-30T03:34:52;101658.31;;;6.84;100.00
69784;BME280;57054;51.978;4.498;2023-01-30T03:37:17;101643.56;;;6.84;100.00
69784;BME280;57054;51.978;4.498;2023-01-30T03:39:43;101636.59;;;6.85;100.00
69784;BME280;57054;51.978;4.498;2023-01-30T03:42:08;101666.94;;;6.87;100.00
69784;BME280;57054;51.978;4.498;2023-01-30T03:44:33;101661.72;;;6.87;100.00
69784;BME280;57054;51.978;4.498;2023-01-30T03:46:58;101658.25;;;6.88;100.00
69784;BME280;57054;51.978;4.498;2023-01-30T03:49:24;101659.13;;;6.89;100.00
69784;BME280;57054;51.978;4.498;2023-01-30T03:51:49;101661.72;;;6.89;100.00
69784;BME280;57054;51.978;4.498;2023-01-30T03:54:14;101660.88;;;6.88;100.00
69784;BME280;57054;51.978;4.498;2023-01-30T03:56:39;101658.25;;;6.88;100.00
69784;BME280;57054;51.978;4.498;2023-01-30T03:59:05;101650.44;;;6.88;100.00
69784;BME280;57054;51.978;4.498;2023-01-30T04:01:30;101665.22;;;6.89;100.00
69784;BME280;57054;51.978;4.498;2023-01-30T04:03:55;101646.97;;;6.89;100.00
69784;BME280;57054;51.978;4.498;2023-01-30T04:06:20;101655.66;;;6.88;100.00
69784;BME280;57054;51.978;4.498;2023-01-30T04:08:45;101641.78;;;6.89;100.00
69784;BME280;57054;51.978;4.498;2023-01-30T04:11:11;101645.22;;;6.90;100.00
69784;BME280;57054;51.978;4.498;2023-01-30T04:13:36;101643.50;;;6.89;100.00
69784;BME280;57054;51.978;4.498;2023-01-30T04:18:38;101656.50;;;6.89;100.00
69784;BME280;57054;51.978;4.498;2023-01-30T04:21:03;101658.25;;;6.88;100.00
69784;BME280;57054;51.978;4.498;2023-01-30T04:23:29;101651.31;;;6.89;100.00
69784;BME280;57054;51.978;4.498;2023-01-30T04:25:54;101663.47;;;6.88;100.00
69784;BME280;57054;51.978;4.498;2023-01-30T04:28:19;101678.25;;;6.88;100.00
69784;BME280;57054;51.978;4.498;2023-01-30T04:30:44;101668.69;;;6.87;100.00
69784;BME280;57054;51.978;4.498;2023-01-30T04:33:10;101658.28;;;6.85;100.00
69784;BME280;57054;51.978;4.498;2023-01-30T04:35:35;101680.88;;;6.83;99.36
69784;BME280;57054;51.978;4.498;2023-01-30T04:38:00;101677.44;;;6.83;97.83
69784;BME280;57054;51.978;4.498;2023-01-30T04:40:26;101660.97;;;6.81;97.82
69784;BME280;57054;51.978;4.498;2023-01-30T04:42:51;101693.94;;;6.80;96.99
69784;BME280;57054;51.978;4.498;2023-01-30T04:45:16;101678.34;;;6.79;95.16
69784;BME280;57054;51.978;4.498;2023-01-30T04:47:41;101695.69;;;6.80;94.07
69784;BME280;57054;51.978;4.498;2023-01-30T04:50:07;101700.00;;;6.82;93.29
69784;BME280;57054;51.978;4.498;2023-01-30T04:52:33;101681.72;;;6.84;92.71
69784;BME280;57054;51.978;4.498;2023-01-30T04:54:58;101697.34;;;6.87;91.92
69784;BME280;57054;51.978;4.498;2023-01-30T04:57:23;101697.31;;;6.88;92.66
69784;BME280;57054;51.978;4.498;2023-01-30T04:59:48;101719.00;;;6.89;93.83
69784;BME280;57054;51.978;4.498;2023-01-30T05:02:14;101705.97;;;6.89;93.71
69784;BME280;57054;51.978;4.498;2023-01-30T05:04:39;101700.75;;;6.90;94.04
69784;BME280;57054;51.978;4.498;2023-01-30T05:07:04;101700.78;;;6.89;93.94
69784;BME280;57054;51.978;4.498;2023-01-30T05:09:29;101702.50;;;6.90;94.38
69784;BME280;57054;51.978;4.498;2023-01-30T05:11:55;101702.53;;;6.88;93.99
69784;BME280;57054;51.978;4.498;2023-01-30T05:14:20;101706.88;;;6.88;94.44
69784;BME280;57054;51.978;4.498;2023-01-30T05:16:45;101719.06;;;6.84;93.53
69784;BME280;57054;51.978;4.498;2023-01-30T05:19:11;101703.47;;;6.83;93.68
69784;BME280;57054;51.978;4.498;2023-01-30T05:21:36;101706.06;;;6.81;94.16
69784;BME280;57054;51.978;4.498;2023-01-30T05:24:02;101697.44;;;6.79;93.17
69784;BME280;57054;51.978;4.498;2023-01-30T05:26:27;101698.31;;;6.77;92.77
69784;BME280;57054;51.978;4.498;2023-01-30T05:28:53;101695.75;;;6.75;93.04
69784;BME280;57054;51.978;4.498;2023-01-30T05:31:18;101705.28;;;6.73;93.07
69784;BME280;57054;51.978;4.498;2023-01-30T05:33:44;101694.03;;;6.71;92.52
69784;BME280;57054;51.978;4.498;2023-01-30T05:36:12;101691.47;;;6.69;93.06
69784;BME280;57054;51.978;4.498;2023-01-30T05:38:38;101695.84;;;6.66;92.89
69784;BME280;57054;51.978;4.498;2023-01-30T05:41:04;101699.31;;;6.65;93.03
69784;BME280;57054;51.978;4.498;2023-01-30T05:43:30;101713.25;;;6.61;93.70
69784;BME280;57054;51.978;4.498;2023-01-30T05:45:56;101730.63;;;6.59;93.38
69784;BME280;57054;51.978;4.498;2023-01-30T05:48:22;101715.03;;;6.57;94.04
69784;BME280;57054;51.978;4.498;2023-01-30T05:50:51;101718.47;;;6.56;94.48
69784;BME280;57054;51.978;4.498;2023-01-30T05:53:17;101723.72;;;6.53;94.73
69784;BME280;57054;51.978;4.498;2023-01-30T05:55:42;101722.84;;;6.52;94.99
69784;BME280;57054;51.978;4.498;2023-01-30T05:58:08;101726.38;;;6.48;94.46
69784;BME280;57054;51.978;4.498;2023-01-30T06:00:33;101733.31;;;6.48;94.42
69784;BME280;57054;51.978;4.498;2023-01-30T06:02:59;101715.09;;;6.48;95.04
69784;BME280;57054;51.978;4.498;2023-01-30T06:05:24;101728.13;;;6.45;94.63
69784;BME280;57054;51.978;4.498;2023-01-30T06:07:49;101713.44;;;6.41;93.25
69784;BME280;57054;51.978;4.498;2023-01-30T06:10:15;101713.44;;;6.41;94.24
69784;BME280;57054;51.978;4.498;2023-01-30T06:12:40;101710.00;;;6.37;93.02
69784;BME280;57054;51.978;4.498;2023-01-30T06:15:06;101715.22;;;6.34;92.18
69784;BME280;57054;51.978;4.498;2023-01-30T06:17:31;101730.91;;;6.29;90.57
69784;BME280;57054;51.978;4.498;2023-01-30T06:19:56;101740.41;;;6.27;91.03
69784;BME280;57054;51.978;4.498;2023-01-30T06:22:22;101714.47;;;6.24;89.77
69784;BME280;57054;51.978;4.498;2023-01-30T06:24:47;101699.72;;;6.22;88.81
69784;BME280;57054;51.978;4.498;2023-01-30T06:27:12;101705.81;;;6.19;89.22
69784;BME280;57054;51.978;4.498;2023-01-30T06:29:38;101709.28;;;6.17;88.56
69784;BME280;57054;51.978;4.498;2023-01-30T06:32:03;101721.44;;;6.16;89.12
69784;BME280;57054;51.978;4.498;2023-01-30T06:34:29;101734.47;;;6.14;88.33
69784;BME280;57054;51.978;4.498;2023-01-30T06:36:54;101734.50;;;6.11;86.71
69784;BME280;57054;51.978;4.498;2023-01-30T06:39:20;101732.75;;;6.10;87.91
69784;BME280;57054;51.978;4.498;2023-01-30T06:41:45;101721.50;;;6.10;87.95
69784;BME280;57054;51.978;4.498;2023-01-30T06:44:10;101725.88;;;6.08;87.60
69784;BME280;57054;51.978;4.498;2023-01-30T06:46:36;101721.53;;;6.04;85.19
69784;BME280;57054;51.978;4.498;2023-01-30T06:49:01;101717.22;;;6.03;84.45
69784;BME280;57054;51.978;4.498;2023-01-30T06:51:26;101726.78;;;6.01;84.93
69784;BME280;57054;51.978;4.498;2023-01-30T06:53:52;101724.19;;;5.99;85.08
69784;BME280;57054;51.978;4.498;2023-01-30T06:56:17;101727.66;;;5.96;82.62
69784;BME280;57054;51.978;4.498;2023-01-30T06:58:42;101720.72;;;5.94;83.69
69784;BME280;57054;51.978;4.498;2023-01-30T07:01:08;101748.47;;;5.92;82.17
69784;BME280;57054;51.978;4.498;2023-01-30T07:03:33;101756.28;;;5.90;82.02
69784;BME280;57054;51.978;4.498;2023-01-30T07:05:58;101750.22;;;5.90;83.15
69784;BME280;57054;51.978;4.498;2023-01-30T07:08:23;101764.09;;;5.89;84.04
69784;BME280;57054;51.978;4.498;2023-01-30T07:10:49;101758.88;;;5.87;81.81
69784;BME280;57054;51.978;4.498;2023-01-30T07:13:14;101783.19;;;5.88;83.02
69784;BME280;57054;51.978;4.498;2023-01-30T07:15:39;101763.22;;;5.88;85.20
69784;BME280;57054;51.978;4.498;2023-01-30T07:18:04;101763.25;;;5.85;83.51
69784;BME280;57054;51.978;4.498;2023-01-30T07:20:30;101771.03;;;5.84;83.46
69784;BME280;57054;51.978;4.498;2023-01-30T07:22:55;101782.34;;;5.81;83.01
69784;BME280;57054;51.978;4.498;2023-01-30T07:25:21;101768.47;;;5.82;82.54
69784;BME280;57054;51.978;4.498;2023-01-30T07:27:57;101778.84;;;5.84;82.14
69784;BME280;57054;51.978;4.498;2023-01-30T07:30:23;101772.78;;;5.83;83.74
69784;BME280;57054;51.978;4.498;2023-01-30T07:32:52;101778.84;;;5.84;83.27
69784;BME280;57054;51.978;4.498;2023-01-30T07:35:19;101776.28;;;5.82;83.34
69784;BME280;57054;51.978;4.498;2023-01-30T07:37:45;101787.53;;;5.83;85.75
69784;BME280;57054;51.978;4.498;2023-01-30T07:40:11;101774.53;;;5.81;84.83
69784;BME280;57054;51.978;4.498;2023-01-30T07:42:36;101778.88;;;5.81;86.16
69784;BME280;57054;51.978;4.498;2023-01-30T07:45:02;101765.88;;;5.79;83.79
69784;BME280;57054;51.978;4.498;2023-01-30T07:47:27;101762.44;;;5.79;85.08
69784;BME280;57054;51.978;4.498;2023-01-30T07:49:52;101769.34;;;5.80;85.34
69784;BME280;57054;51.978;4.498;2023-01-30T07:52:17;101776.28;;;5.79;85.96
69784;BME280;57054;51.978;4.498;2023-01-30T07:54:43;101766.75;;;5.78;84.93
69784;BME280;57054;51.978;4.498;2023-01-30T07:57:08;101785.84;;;5.79;84.46
69784;BME280;57054;51.978;4.498;2023-01-30T07:59:33;101792.75;;;5.78;84.27
69784;BME280;57054;51.978;4.498;2023-01-30T08:01:58;101805.75;;;5.76;83.92
69784;BME280;57054;51.978;4.498;2023-01-30T08:04:24;101811.81;;;5.77;84.07
69784;BME280;57054;51.978;4.498;2023-01-30T08:06:49;101806.63;;;5.79;84.76
69784;BME280;57054;51.978;4.498;2023-01-30T08:09:14;101818.75;;;5.78;85.47
69784;BME280;57054;51.978;4.498;2023-01-30T08:11:39;101817.03;;;5.79;85.46
69784;BME280;57054;51.978;4.498;2023-01-30T08:14:05;101822.22;;;5.79;85.08
69784;BME280;57054;51.978;4.498;2023-01-30T08:16:30;101809.22;;;5.79;84.65
69784;BME280;57054;51.978;4.498;2023-01-30T08:18:56;101810.09;;;5.79;85.08
69784;BME280;57054;51.978;4.498;2023-01-30T08:21:21;101818.72;;;5.80;85.91
69784;BME280;57054;51.978;4.498;2023-01-30T08:23:47;101799.69;;;5.81;84.99
69784;BME280;57054;51.978;4.498;2023-01-30T08:26:12;101815.28;;;5.82;85.08
69784;BME280;57054;51.978;4.498;2023-01-30T08:28:39;101818.72;;;5.81;85.21
69784;BME280;57054;51.978;4.498;2023-01-30T08:31:08;101821.31;;;5.83;85.52
69784;BME280;57054;51.978;4.498;2023-01-30T08:33:33;101829.13;;;5.81;84.12
69784;BME280;57054;51.978;4.498;2023-01-30T08:35:59;101821.31;;;5.83;85.17
69784;BME280;57054;51.978;4.498;2023-01-30T08:38:24;101821.31;;;5.84;83.93
69784;BME280;57054;51.978;4.498;2023-01-30T08:40:50;101825.63;;;5.85;83.65
69784;BME280;57054;51.978;4.498;2023-01-30T08:43:15;101844.69;;;5.87;84.58
69784;BME280;57054;51.978;4.498;2023-01-30T08:45:40;101844.69;;;5.89;84.05
69784;BME280;57054;51.978;4.498;2023-01-30T08:48:06;101868.09;;;5.89;84.19
69784;BME280;57054;51.978;4.498;2023-01-30T08:50:32;101880.22;;;5.90;85.60
69784;BME280;57054;51.978;4.498;2023-01-30T08:53:01;101855.06;;;5.90;84.92
69784;BME280;57054;51.978;4.498;2023-01-30T08:55:27;101887.13;;;5.92;83.46
69784;BME280;57054;51.978;4.498;2023-01-30T08:57:54;101875.88;;;5.95;84.65
69784;BME280;57054;51.978;4.498;2023-01-30T09:00:20;101856.81;;;5.96;84.00
69784;BME280;57054;51.978;4.498;2023-01-30T09:02:45;101873.25;;;5.98;82.87
69784;BME280;57054;51.978;4.498;2023-01-30T09:05:10;101877.59;;;5.99;82.80
69784;BME280;57054;51.978;4.498;2023-01-30T09:07:36;101886.25;;;6.01;82.92
69784;BME280;57054;51.978;4.498;2023-01-30T09:10:01;101877.59;;;6.02;83.37
69784;BME280;57054;51.978;4.498;2023-01-30T09:12:27;101882.81;;;6.02;82.95
69784;BME280;57054;51.978;4.498;2023-01-30T09:14:52;101882.78;;;6.04;82.72
69784;BME280;57054;51.978;4.498;2023-01-30T09:17:19;101900.97;;;6.05;82.77
69784;BME280;57054;51.978;4.498;2023-01-30T09:19:44;101892.31;;;6.06;82.87
69784;BME280;57054;51.978;4.498;2023-01-30T09:22:10;101891.47;;;6.06;83.04
69784;BME280;57054;51.978;4.498;2023-01-30T09:24:35;101885.38;;;6.07;83.22
69784;BME280;57054;51.978;4.498;2023-01-30T09:27:00;101897.50;;;6.06;83.73
69784;BME280;57054;51.978;4.498;2023-01-30T09:29:26;101894.03;;;6.07;84.52
69784;BME280;57054;51.978;4.498;2023-01-30T09:31:51;101908.78;;;6.07;85.25
69784;BME280;57054;51.978;4.498;2023-01-30T09:34:17;101899.22;;;6.07;83.86
69784;BME280;57054;51.978;4.498;2023-01-30T09:39:31;101896.84;;;7.02;77.87
69784;BME280;57054;51.978;4.498;2023-01-30T09:47:27;101941.56;;;6.37;81.17
69784;BME280;57054;51.978;4.498;2023-01-30T09:50:01;101936.38;;;6.34;80.85
69784;BME280;57054;51.978;4.498;2023-01-30T09:52:52;101925.97;;;6.31;81.42
69784;BME280;57054;51.978;4.498;2023-01-30T09:55:25;101939.03;;;6.28;81.77
69784;BME280;57054;51.978;4.498;2023-01-30T09:57:53;101927.78;;;6.26;81.19
69784;BME280;57054;51.978;4.498;2023-01-30T10:00:29;101931.22;;;6.25;81.11
69784;BME280;57054;51.978;4.498;2023-01-30T10:03:17;101958.97;;;6.26;81.48
69784;BME280;57054;51.978;4.498;2023-01-30T10:05:47;101962.44;;;6.25;81.40
69784;BME280;57054;51.978;4.498;2023-01-30T10:11:09;101972.84;;;6.25;81.72
69784;BME280;57054;51.978;4.498;2023-01-30T10:13:53;101978.91;;;6.25;81.90
69784;BME280;57054;51.978;4.498;2023-01-30T10:27:40;101964.16;;;6.33;80.88
69784;BME280;57054;51.978;4.498;2023-01-30T10:30:13;102001.44;;;6.34;81.60
69784;BME280;57054;51.978;4.498;2023-01-30T10:32:54;101997.06;;;6.34;81.61
69784;BME280;57054;51.978;4.498;2023-01-30T10:35:23;101984.91;;;6.37;82.31
69784;BME280;57054;51.978;4.498;2023-01-30T10:40:30;101995.31;;;6.41;81.29
69784;BME280;57054;51.978;4.498;2023-01-30T10:43:03;101989.25;;;6.42;81.14
69784;BME280;57054;51.978;4.498;2023-01-30T10:48:53;101979.72;;;6.43;81.22
69784;BME280;57054;51.978;4.498;2023-01-30T10:54:13;101982.31;;;6.46;81.11
69784;BME280;57054;51.978;4.498;2023-01-30T11:00:02;102012.63;;;6.50;81.58
69784;BME280;57054;51.978;4.498;2023-01-30T11:05:15;102007.44;;;6.48;81.20
69784;BME280;57054;51.978;4.498;2023-01-30T11:07:42;102003.97;;;6.48;81.86
69784;BME280;57054;51.978;4.498;2023-01-30T11:10:22;102016.09;;;6.47;81.84
69784;BME280;57054;51.978;4.498;2023-01-30T11:12:59;102010.03;;;6.47;82.05
69784;BME280;57054;51.978;4.498;2023-01-30T11:15:38;102008.31;;;6.46;82.22
69784;BME280;57054;51.978;4.498;2023-01-30T11:18:05;101998.78;;;6.45;82.90
69784;BME280;57054;51.978;4.498;2023-01-30T11:20:38;102006.59;;;6.45;82.60
69784;BME280;57054;51.978;4.498;2023-01-30T11:23:22;102017.84;;;6.45;81.69
69784;BME280;57054;51.978;4.498;2023-01-30T11:25:51;101997.03;;;6.47;81.42
69784;BME280;57054;51.978;4.498;2023-01-30T11:28:18;101994.44;;;6.47;81.83
69784;BME280;57054;51.978;4.498;2023-01-30T11:30:52;101990.97;;;6.49;82.24
69784;BME280;57054;51.978;4.498;2023-01-30T11:33:19;102023.91;;;6.50;82.32
69784;BME280;57054;51.978;4.498;2023-01-30T11:36:09;101995.28;;;6.52;82.79
69784;BME280;57054;51.978;4.498;2023-01-30T11:41:40;102014.34;;;6.52;82.05
69784;BME280;57054;51.978;4.498;2023-01-30T11:44:08;102005.69;;;6.52;82.69
69784;BME280;57054;51.978;4.498;2023-01-30T11:46:36;102006.53;;;6.52;82.21
69784;BME280;57054;51.978;4.498;2023-01-30T11:49:12;102003.94;;;6.51;82.50
69784;BME280;57054;51.978;4.498;2023-01-30T11:51:39;101993.56;;;6.49;82.89
69784;BME280;57054;51.978;4.498;2023-01-30T11:54:13;102016.09;;;6.47;82.32
69784;BME280;57054;51.978;4.498;2023-01-30T11:56:52;102023.91;;;6.49;82.28
69784;BME280;57054;51.978;4.498;2023-01-30T11:59:29;101994.41;;;6.51;81.60
69784;BME280;57054;51.978;4.498;2023-01-30T12:02:29;101993.53;;;6.54;81.20
69784;BME280;57054;51.978;4.498;2023-01-30T12:05:01;102018.66;;;6.58;82.40
69784;BME280;57054;51.978;4.498;2023-01-30T12:07:28;102005.63;;;6.61;82.63
69784;BME280;57054;51.978;4.498;2023-01-30T12:09:56;102014.28;;;6.63;82.41
69784;BME280;57054;51.978;4.498;2023-01-30T12:12:45;102010.81;;;6.64;82.16
69784;BME280;57054;51.978;4.498;2023-01-30T12:15:24;102009.06;;;6.65;83.12
69784;BME280;57054;51.978;4.498;2023-01-30T12:20:54;102010.78;;;6.69;82.05
69784;BME280;57054;51.978;4.498;2023-01-30T12:26:11;102041.13;;;6.76;81.65
69784;BME280;57054;51.978;4.498;2023-01-30T12:31:13;102002.06;;;6.79;82.28
69784;BME280;57054;51.978;4.498;2023-01-30T12:33:42;102009.00;;;6.79;81.16
69784;BME280;57054;51.978;4.498;2023-01-30T12:48:23;102019.38;;;6.85;80.98
69784;BME280;57054;51.978;4.498;2023-01-30T12:50:56;102026.31;;;6.86;81.18
69784;BME280;57054;51.978;4.498;2023-01-30T12:57:01;102035.00;;;6.85;81.36
69784;BME280;57054;51.978;4.498;2023-01-30T13:05:17;102064.50;;;6.90;80.56
69784;BME280;57054;51.978;4.498;2023-01-30T13:08:19;102052.31;;;6.90;81.28
69784;BME280;57054;51.978;4.498;2023-01-30T13:13:57;102054.06;;;6.90;81.13
69784;BME280;57054;51.978;4.498;2023-01-30T13:19:25;102060.13;;;6.90;81.16
69784;BME280;57054;51.978;4.498;2023-01-30T13:23:05;102064.47;;;6.93;81.44
69784;BME280;57054;51.978;4.498;2023-01-30T13:25:43;102054.91;;;6.94;81.77
69784;BME280;57054;51.978;4.498;2023-01-30T13:28:18;102067.03;;;6.96;81.86
69784;BME280;57054;51.978;4.498;2023-01-30T13:30:46;102068.78;;;6.96;80.87
69784;BME280;57054;51.978;4.498;2023-01-30T13:33:40;102074.84;;;6.96;80.76
69784;BME280;57054;51.978;4.498;2023-01-30T13:36:31;102089.63;;;6.96;80.51
69784;BME280;57054;51.978;4.498;2023-01-30T13:39:03;102087.03;;;6.96;80.03
69784;BME280;57054;51.978;4.498;2023-01-30T13:41:36;102093.09;;;6.95;80.69
69784;BME280;57054;51.978;4.498;2023-01-30T13:44:09;102096.59;;;6.95;80.18
69784;BME280;57054;51.978;4.498;2023-01-30T13:46:40;102094.00;;;6.92;80.63
69784;BME280;57054;51.978;4.498;2023-01-30T13:49:18;102091.38;;;6.92;81.29
69784;BME280;57054;51.978;4.498;2023-01-30T13:51:56;102103.56;;;6.93;80.96
69784;BME280;57054;51.978;4.498;2023-01-30T13:56:58;102113.06;;;6.94;79.67
69784;BME280;57054;51.978;4.498;2023-01-30T14:02:20;102111.31;;;6.95;80.13
69784;BME280;57054;51.978;4.498;2023-01-30T14:04:52;102116.53;;;6.96;80.49
69784;BME280;57054;51.978;4.498;2023-01-30T14:07:21;102120.03;;;6.95;80.18
69784;BME280;57054;51.978;4.498;2023-01-30T14:12:40;102130.44;;;6.95;80.55
69784;BME280;57054;51.978;4.498;2023-01-30T14:20:32;102155.63;;;6.93;80.49
69784;BME280;57054;51.978;4.498;2023-01-30T14:23:00;102159.97;;;6.91;81.00
69784;BME280;57054;51.978;4.498;2023-01-30T14:32:57;102185.16;;;6.87;81.29
69784;BME280;57054;51.978;4.498;2023-01-30T14:35:27;102186.03;;;6.85;80.71
69784;BME280;57054;51.978;4.498;2023-01-30T14:40:33;102188.63;;;6.88;81.03
69784;BME280;57054;51.978;4.498;2023-01-30T14:45:57;102211.19;;;6.94;80.99
69784;BME280;57054;51.978;4.498;2023-01-30T14:51:23;102214.66;;;6.96;80.20
69784;BME280;57054;51.978;4.498;2023-01-30T14:53:58;102220.72;;;6.95;79.23
69784;BME280;57054;51.978;4.498;2023-01-30T14:59:29;102228.56;;;6.93;78.95
69784;BME280;57054;51.978;4.498;2023-01-30T15:01:59;102226.81;;;6.90;78.79
69784;BME280;57054;51.978;4.498;2023-01-30T15:04:31;102232.03;;;6.92;79.50
69784;BME280;57054;51.978;4.498;2023-01-30T15:07:06;102234.63;;;6.89;80.05
69784;BME280;57054;51.978;4.498;2023-01-30T15:09:32;102242.44;;;6.87;80.42
69784;BME280;57054;51.978;4.498;2023-01-30T15:17:31;102253.78;;;6.79;80.89
69784;BME280;57054;51.978;4.498;2023-01-30T15:20:42;102253.78;;;6.76;80.98
69784;BME280;57054;51.978;4.498;2023-01-30T15:23:40;102249.41;;;6.73;81.24
69784;BME280;57054;51.978;4.498;2023-01-30T15:29:21;102253.78;;;6.69;81.47
69784;BME280;57054;51.978;4.498;2023-01-30T15:31:58;102271.13;;;6.67;82.25
69784;BME280;57054;51.978;4.498;2023-01-30T15:34:29;102265.06;;;6.67;82.19
69784;BME280;57054;51.978;4.498;2023-01-30T15:36:54;102267.66;;;6.65;82.17